createdAt,value
2016-12-23T00:00:28.594Z,975.46
2016-12-23T00:01:37.293Z,975.47
2016-12-23T00:02:45.986Z,975.45
2016-12-23T00:03:54.679Z,975.45
2016-12-23T00:05:03.367Z,975.39
2016-12-23T00:06:12.066Z,975.42
2016-12-23T00:07:20.756Z,975.44
2016-12-23T00:08:29.448Z,975.45
2016-12-23T00:09:38.139Z,975.43
2016-12-23T00:10:46.831Z,975.4
2016-12-23T00:11:55.523Z,975.42
2016-12-23T00:13:04.230Z,975.48
2016-12-23T00:14:12.921Z,975.59
2016-12-23T00:15:21.610Z,975.57
2016-12-23T00:16:30.313Z,975.54
2016-12-23T00:17:39.003Z,975.53
2016-12-23T00:18:47.718Z,975.53
2016-12-23T00:19:56.410Z,975.53
2016-12-23T00:21:05.105Z,975.58
2016-12-23T00:22:13.799Z,975.51
2016-12-23T00:23:22.489Z,975.53
2016-12-23T00:24:31.177Z,975.5
2016-12-23T00:25:39.868Z,975.59
2016-12-23T00:26:48.560Z,975.65
2016-12-23T00:27:57.249Z,975.64
2016-12-23T00:29:05.941Z,975.66
2016-12-23T00:30:14.637Z,975.68
2016-12-23T00:31:23.329Z,975.65
2016-12-23T00:32:32.025Z,975.66
2016-12-23T00:33:40.716Z,975.65
2016-12-23T00:34:49.411Z,975.65
2016-12-23T00:35:58.101Z,975.64
2016-12-23T00:37:06.792Z,975.63
2016-12-23T00:38:15.480Z,975.59
2016-12-23T00:39:24.171Z,975.6
2016-12-23T00:40:32.869Z,975.66
2016-12-23T00:41:41.561Z,975.67
2016-12-23T00:42:50.257Z,975.64
2016-12-23T00:43:58.947Z,975.6
2016-12-23T00:45:07.636Z,975.58
2016-12-23T00:46:16.326Z,975.57
2016-12-23T00:47:25.019Z,975.62
2016-12-23T00:48:33.717Z,975.66
2016-12-23T00:49:42.415Z,975.62
2016-12-23T00:50:51.422Z,975.61
2016-12-23T00:52:00.115Z,975.61
2016-12-23T00:53:08.807Z,975.65
2016-12-23T00:54:17.496Z,975.66
2016-12-23T00:55:26.186Z,975.64
2016-12-23T00:56:34.878Z,975.66
2016-12-23T00:57:43.570Z,975.62
2016-12-23T00:58:52.262Z,975.7
2016-12-23T01:00:00.954Z,975.64
2016-12-23T01:01:09.648Z,975.64
2016-12-23T01:02:18.337Z,975.68
2016-12-23T01:03:27.026Z,975.73
2016-12-23T01:04:35.717Z,975.77
2016-12-23T01:05:44.410Z,975.8
2016-12-23T01:06:53.108Z,975.75
2016-12-23T01:08:02.122Z,975.77
2016-12-23T01:09:10.817Z,975.82
2016-12-23T01:10:19.509Z,975.86
2016-12-23T01:11:28.205Z,975.82
2016-12-23T01:12:36.897Z,975.82
2016-12-23T01:13:45.587Z,975.83
2016-12-23T01:14:54.278Z,975.83
2016-12-23T01:16:02.971Z,975.87
2016-12-23T01:17:11.666Z,975.83
2016-12-23T01:18:20.355Z,975.79
2016-12-23T01:19:29.045Z,975.79
2016-12-23T01:20:37.741Z,975.78
2016-12-23T01:21:46.437Z,975.79
2016-12-23T01:22:55.124Z,975.74
2016-12-23T01:24:03.816Z,975.79
2016-12-23T01:25:12.507Z,975.75
2016-12-23T01:26:21.201Z,975.81
2016-12-23T01:27:29.901Z,975.81
2016-12-23T01:28:38.597Z,975.85
2016-12-23T01:29:47.285Z,975.9
2016-12-23T01:30:55.984Z,975.98
2016-12-23T01:32:04.676Z,975.99
2016-12-23T01:33:13.373Z,975.98
2016-12-23T01:34:22.100Z,975.97
2016-12-23T01:35:30.793Z,975.99
2016-12-23T01:36:39.486Z,975.99
2016-12-23T01:37:48.177Z,975.98
2016-12-23T01:38:56.867Z,976.02
2016-12-23T01:40:05.566Z,976.02
2016-12-23T01:41:14.255Z,976.01
2016-12-23T01:42:22.950Z,976.05
2016-12-23T01:43:31.641Z,976.07
2016-12-23T01:44:40.335Z,976.06
2016-12-23T01:45:49.027Z,976.06
2016-12-23T01:46:57.718Z,976.06
2016-12-23T01:48:06.409Z,976.02
2016-12-23T01:49:15.102Z,976.19
2016-12-23T01:50:23.788Z,976.17
2016-12-23T01:51:32.485Z,976.15
2016-12-23T01:52:41.178Z,976.12
2016-12-23T01:53:49.869Z,976.09
2016-12-23T01:54:58.883Z,976.05
2016-12-23T01:56:07.573Z,976.11
2016-12-23T01:57:16.265Z,976.09
2016-12-23T01:58:24.954Z,976.06
2016-12-23T01:59:33.648Z,976.1
2016-12-23T02:00:42.337Z,976.13
2016-12-23T02:01:51.029Z,976.17
2016-12-23T02:02:59.726Z,976.16
2016-12-23T02:04:08.454Z,976.21
2016-12-23T02:05:17.458Z,976.2
2016-12-23T02:06:26.152Z,976.26
2016-12-23T02:07:34.843Z,976.26
2016-12-23T02:08:43.532Z,976.29
2016-12-23T02:09:52.225Z,976.26
2016-12-23T02:11:00.915Z,976.34
2016-12-23T02:12:09.605Z,976.31
2016-12-23T02:13:18.294Z,976.34
2016-12-23T02:14:26.984Z,976.41
2016-12-23T02:15:35.678Z,976.39
2016-12-23T02:16:44.376Z,976.36
2016-12-23T02:17:53.066Z,976.44
2016-12-23T02:19:01.789Z,976.44
2016-12-23T02:20:10.481Z,976.48
2016-12-23T02:21:19.170Z,976.45
2016-12-23T02:22:27.858Z,976.4
2016-12-23T02:23:36.549Z,976.37
2016-12-23T02:24:45.241Z,976.35
2016-12-23T02:25:53.933Z,976.36
2016-12-23T02:27:02.623Z,976.37
2016-12-23T02:28:11.314Z,976.35
2016-12-23T02:29:20.007Z,976.31
2016-12-23T02:30:28.698Z,976.31
2016-12-23T02:31:37.390Z,976.32
2016-12-23T02:32:46.084Z,976.3
2016-12-23T02:33:54.776Z,976.26
2016-12-23T02:35:03.469Z,976.24
2016-12-23T02:36:12.167Z,976.28
2016-12-23T02:37:20.885Z,976.29
2016-12-23T02:38:29.573Z,976.21
2016-12-23T02:39:38.266Z,976.23
2016-12-23T02:40:46.955Z,976.26
2016-12-23T02:41:55.685Z,976.22
2016-12-23T02:43:04.374Z,976.23
2016-12-23T02:44:13.063Z,976.24
2016-12-23T02:45:21.753Z,976.22
2016-12-23T02:46:30.767Z,976.22
2016-12-23T02:47:39.461Z,976.23
2016-12-23T02:48:48.150Z,976.27
2016-12-23T02:49:56.842Z,976.21
2016-12-23T02:51:05.535Z,976.29
2016-12-23T02:52:14.227Z,976.28
2016-12-23T02:53:22.915Z,976.29
2016-12-23T02:54:31.606Z,976.36
2016-12-23T02:55:40.299Z,976.42
2016-12-23T02:56:48.994Z,976.41
2016-12-23T02:57:57.683Z,976.43
2016-12-23T02:59:06.377Z,976.4
2016-12-23T03:00:15.070Z,976.39
2016-12-23T03:01:23.762Z,976.4
2016-12-23T03:02:32.485Z,976.37
2016-12-23T03:03:41.177Z,976.42
2016-12-23T03:04:49.865Z,976.43
2016-12-23T03:05:58.557Z,976.45
2016-12-23T03:07:07.259Z,976.43
2016-12-23T03:08:15.981Z,976.47
2016-12-23T03:09:24.671Z,976.47
2016-12-23T03:10:33.363Z,976.54
2016-12-23T03:11:42.373Z,976.55
2016-12-23T03:12:51.063Z,976.6
2016-12-23T03:13:59.753Z,976.59
2016-12-23T03:15:08.446Z,976.61
2016-12-23T03:16:17.139Z,976.61
2016-12-23T03:17:25.830Z,976.6
2016-12-23T03:18:34.555Z,976.65
2016-12-23T03:19:43.246Z,976.65
2016-12-23T03:20:51.937Z,976.62
2016-12-23T03:22:00.632Z,976.62
2016-12-23T03:23:09.652Z,976.56
2016-12-23T03:24:18.344Z,976.51
2016-12-23T03:25:27.037Z,976.5
2016-12-23T03:26:35.727Z,976.53
2016-12-23T03:27:44.422Z,976.45
2016-12-23T03:28:53.109Z,976.44
2016-12-23T03:30:01.802Z,976.48
2016-12-23T03:31:10.499Z,976.46
2016-12-23T03:32:19.190Z,976.47
2016-12-23T03:33:27.887Z,976.51
2016-12-23T03:34:36.899Z,976.49
2016-12-23T03:35:45.594Z,976.53
2016-12-23T03:36:54.607Z,976.5
2016-12-23T03:38:03.298Z,976.38
2016-12-23T03:39:11.991Z,976.39
2016-12-23T03:40:20.684Z,976.46
2016-12-23T03:41:29.373Z,976.49
2016-12-23T03:42:38.064Z,976.51
2016-12-23T03:43:46.755Z,976.49
2016-12-23T03:44:55.445Z,976.54
2016-12-23T03:46:04.143Z,976.51
2016-12-23T03:47:12.832Z,976.55
2016-12-23T03:48:21.524Z,976.54
2016-12-23T03:49:30.216Z,976.58
2016-12-23T03:50:38.906Z,976.63
2016-12-23T03:51:47.602Z,976.56
2016-12-23T03:52:56.296Z,976.62
2016-12-23T03:54:04.989Z,976.64
2016-12-23T03:55:13.689Z,976.68
2016-12-23T03:56:22.380Z,976.67
2016-12-23T03:57:31.076Z,976.7
2016-12-23T03:58:39.767Z,976.65
2016-12-23T03:59:48.467Z,976.61
2016-12-23T04:00:57.155Z,976.56
2016-12-23T04:02:05.854Z,976.6
2016-12-23T04:03:14.546Z,976.66
2016-12-23T04:04:23.244Z,976.62
2016-12-23T04:05:31.934Z,976.6
2016-12-23T04:06:40.632Z,976.62
2016-12-23T04:07:49.321Z,976.65
2016-12-23T04:08:58.012Z,976.7
2016-12-23T04:10:06.707Z,976.71
2016-12-23T04:11:15.447Z,976.78
2016-12-23T04:12:24.139Z,976.81
2016-12-23T04:13:32.860Z,976.84
2016-12-23T04:14:41.568Z,976.9
2016-12-23T04:15:50.258Z,976.97
2016-12-23T04:16:58.951Z,976.94
2016-12-23T04:18:07.647Z,976.97
2016-12-23T04:19:16.337Z,976.98
2016-12-23T04:20:25.349Z,976.96
2016-12-23T04:21:34.039Z,976.98
2016-12-23T04:22:42.732Z,976.99
2016-12-23T04:23:51.432Z,977.03
2016-12-23T04:25:00.123Z,976.95
2016-12-23T04:26:08.813Z,976.94
2016-12-23T04:27:17.506Z,976.93
2016-12-23T04:28:26.197Z,976.94
2016-12-23T04:29:34.891Z,976.9
2016-12-23T04:30:43.581Z,976.87
2016-12-23T04:31:52.271Z,976.94
2016-12-23T04:33:00.956Z,976.96
2016-12-23T04:34:09.646Z,976.98
2016-12-23T04:35:18.340Z,976.99
2016-12-23T04:36:27.031Z,977.02
2016-12-23T04:37:35.757Z,977.05
2016-12-23T04:38:44.447Z,977.07
2016-12-23T04:39:53.242Z,977.05
2016-12-23T04:41:01.937Z,977.1
2016-12-23T04:42:10.634Z,977.05
2016-12-23T04:43:19.332Z,977.09
2016-12-23T04:44:28.025Z,977.08
2016-12-23T04:45:37.036Z,977.08
2016-12-23T04:46:45.725Z,977.11
2016-12-23T04:47:54.419Z,977.08
2016-12-23T04:49:03.115Z,977.12
2016-12-23T04:50:11.809Z,977.13
2016-12-23T04:51:20.500Z,977.17
2016-12-23T04:52:29.192Z,977.18
2016-12-23T04:53:37.887Z,977.21
2016-12-23T04:54:46.579Z,977.26
2016-12-23T04:55:55.267Z,977.26
2016-12-23T04:57:03.959Z,977.27
2016-12-23T04:58:12.648Z,977.33
2016-12-23T04:59:21.337Z,977.33
2016-12-23T05:00:30.027Z,977.36
2016-12-23T05:01:38.718Z,977.37
2016-12-23T05:02:47.410Z,977.43
2016-12-23T05:03:56.132Z,977.44
2016-12-23T05:05:04.830Z,977.43
2016-12-23T05:06:13.517Z,977.45
2016-12-23T05:07:22.205Z,977.47
2016-12-23T05:08:30.892Z,977.46
2016-12-23T05:09:39.583Z,977.44
2016-12-23T05:10:48.278Z,977.49
2016-12-23T05:11:56.972Z,977.52
2016-12-23T05:13:05.664Z,977.53
2016-12-23T05:14:14.361Z,977.59
2016-12-23T05:15:23.051Z,977.56
2016-12-23T05:16:31.744Z,977.57
2016-12-23T05:17:40.437Z,977.61
2016-12-23T05:18:49.157Z,977.61
2016-12-23T05:19:57.846Z,977.61
2016-12-23T05:21:06.540Z,977.7
2016-12-23T05:22:15.231Z,977.65
2016-12-23T05:23:23.927Z,977.66
2016-12-23T05:24:32.635Z,977.65
2016-12-23T05:25:41.329Z,977.65
2016-12-23T05:26:50.045Z,977.7
2016-12-23T05:27:58.735Z,977.65
2016-12-23T05:29:07.432Z,977.72
2016-12-23T05:30:16.123Z,977.69
2016-12-23T05:31:24.817Z,977.7
2016-12-23T05:32:33.511Z,977.75
2016-12-23T05:33:42.228Z,977.77
2016-12-23T05:34:50.921Z,977.81
2016-12-23T05:35:59.612Z,977.81
2016-12-23T05:37:08.303Z,977.81
2016-12-23T05:38:16.997Z,977.82
2016-12-23T05:39:25.687Z,977.8
2016-12-23T05:40:34.404Z,977.81
2016-12-23T05:41:43.096Z,977.77
2016-12-23T05:42:51.787Z,977.81
2016-12-23T05:44:00.480Z,977.85
2016-12-23T05:45:09.173Z,977.88
2016-12-23T05:46:17.865Z,977.96
2016-12-23T05:47:26.557Z,978
2016-12-23T05:48:35.246Z,977.95
2016-12-23T05:49:43.938Z,977.93
2016-12-23T05:50:52.630Z,977.94
2016-12-23T05:52:01.323Z,977.91
2016-12-23T05:53:10.021Z,977.92
2016-12-23T05:54:18.711Z,977.97
2016-12-23T05:55:27.404Z,977.99
2016-12-23T05:56:36.099Z,977.96
2016-12-23T05:57:45.111Z,977.97
2016-12-23T05:58:53.811Z,977.99
2016-12-23T06:00:02.535Z,978
2016-12-23T06:01:11.228Z,978.04
2016-12-23T06:02:19.918Z,978.05
2016-12-23T06:03:28.630Z,978.13
2016-12-23T06:04:37.321Z,978.17
2016-12-23T06:05:46.012Z,978.2
2016-12-23T06:06:54.706Z,978.17
2016-12-23T06:08:03.394Z,978.24
2016-12-23T06:09:12.086Z,978.24
2016-12-23T06:10:20.783Z,978.28
2016-12-23T06:11:29.479Z,978.24
2016-12-23T06:12:38.169Z,978.28
2016-12-23T06:13:46.860Z,978.27
2016-12-23T06:14:55.549Z,978.22
2016-12-23T06:16:04.241Z,978.24
2016-12-23T06:17:12.952Z,978.3
2016-12-23T06:18:21.644Z,978.28
2016-12-23T06:19:30.334Z,978.26
2016-12-23T06:20:39.021Z,978.22
2016-12-23T06:21:48.040Z,978.33
2016-12-23T06:22:56.732Z,978.34
2016-12-23T06:24:05.423Z,978.36
2016-12-23T06:25:14.118Z,978.38
2016-12-23T06:26:22.806Z,978.37
2016-12-23T06:27:31.521Z,978.44
2016-12-23T06:28:40.212Z,978.43
2016-12-23T06:29:48.905Z,978.46
2016-12-23T06:30:57.602Z,978.49
2016-12-23T06:32:06.295Z,978.48
2016-12-23T06:33:14.983Z,978.49
2016-12-23T06:34:23.675Z,978.53
2016-12-23T06:35:32.369Z,978.6
2016-12-23T06:36:41.059Z,978.62
2016-12-23T06:37:49.750Z,978.61
2016-12-23T06:38:58.446Z,978.56
2016-12-23T06:40:07.146Z,978.56
2016-12-23T06:41:15.835Z,978.57
2016-12-23T06:42:24.531Z,978.55
2016-12-23T06:43:33.220Z,978.56
2016-12-23T06:44:41.909Z,978.61
2016-12-23T06:45:50.601Z,978.57
2016-12-23T06:46:59.291Z,978.56
2016-12-23T06:48:07.979Z,978.53
2016-12-23T06:49:16.669Z,978.6
2016-12-23T06:50:25.364Z,978.61
2016-12-23T06:51:34.054Z,978.59
2016-12-23T06:52:42.780Z,978.69
2016-12-23T06:53:51.498Z,978.74
2016-12-23T06:55:00.190Z,978.74
2016-12-23T06:56:08.888Z,978.73
2016-12-23T06:57:17.579Z,978.73
2016-12-23T06:58:26.272Z,978.78
2016-12-23T06:59:34.961Z,978.79
2016-12-23T07:00:43.653Z,978.83
2016-12-23T07:01:52.350Z,978.86
2016-12-23T07:03:01.042Z,978.87
2016-12-23T07:04:09.731Z,978.89
2016-12-23T07:05:18.423Z,978.84
2016-12-23T07:06:27.117Z,978.82
2016-12-23T07:07:35.812Z,978.81
2016-12-23T07:08:44.503Z,978.79
2016-12-23T07:09:53.226Z,978.76
2016-12-23T07:11:01.913Z,978.8
2016-12-23T07:12:10.633Z,978.81
2016-12-23T07:13:19.323Z,978.85
2016-12-23T07:14:28.012Z,978.86
2016-12-23T07:15:36.705Z,978.9
2016-12-23T07:16:45.399Z,978.94
2016-12-23T07:17:54.086Z,978.96
2016-12-23T07:19:02.805Z,979
2016-12-23T07:20:11.500Z,978.98
2016-12-23T07:21:20.190Z,979.02
2016-12-23T07:22:28.879Z,979
2016-12-23T07:23:37.568Z,979.04
2016-12-23T07:24:46.257Z,979.07
2016-12-23T07:25:54.946Z,979.08
2016-12-23T07:27:03.636Z,979.06
2016-12-23T07:28:12.335Z,979.08
2016-12-23T07:29:21.036Z,979.11
2016-12-23T07:30:29.727Z,979.13
2016-12-23T07:31:38.420Z,979.11
2016-12-23T07:32:47.127Z,979.12
2016-12-23T07:33:55.823Z,979.17
2016-12-23T07:35:04.538Z,979.17
2016-12-23T07:36:13.231Z,979.15
2016-12-23T07:37:21.921Z,979.2
2016-12-23T07:38:30.611Z,979.22
2016-12-23T07:39:39.303Z,979.23
2016-12-23T07:40:47.994Z,979.25
2016-12-23T07:41:56.686Z,979.22
2016-12-23T07:43:05.378Z,979.31
2016-12-23T07:44:14.077Z,979.27
2016-12-23T07:45:22.768Z,979.23
2016-12-23T07:46:31.462Z,979.27
2016-12-23T07:47:40.154Z,979.31
2016-12-23T07:48:48.847Z,979.21
2016-12-23T07:49:57.536Z,979.28
2016-12-23T07:51:06.225Z,979.32
2016-12-23T07:52:14.916Z,979.28
2016-12-23T07:53:23.630Z,979.3
2016-12-23T07:54:32.320Z,979.47
2016-12-23T07:55:41.326Z,979.69
2016-12-23T07:56:50.020Z,979.56
2016-12-23T07:57:58.706Z,979.56
2016-12-23T07:59:07.398Z,979.57
2016-12-23T08:00:16.091Z,979.56
2016-12-23T08:01:24.781Z,979.64
2016-12-23T08:02:33.477Z,979.65
2016-12-23T08:03:42.173Z,979.68
2016-12-23T08:04:50.867Z,979.66
2016-12-23T08:05:59.555Z,979.63
2016-12-23T08:07:08.248Z,979.65
2016-12-23T08:08:16.940Z,979.65
2016-12-23T08:09:25.634Z,979.72
2016-12-23T08:10:34.638Z,979.66
2016-12-23T08:11:43.338Z,979.71
2016-12-23T08:12:52.027Z,979.71
2016-12-23T08:14:00.726Z,979.72
2016-12-23T08:15:09.417Z,979.81
2016-12-23T08:16:18.105Z,979.89
2016-12-23T08:17:26.828Z,979.89
2016-12-23T08:18:35.519Z,979.93
2016-12-23T08:19:44.222Z,979.99
2016-12-23T08:20:52.913Z,980.11
2016-12-23T08:22:01.605Z,980.06
2016-12-23T08:23:10.297Z,980.12
2016-12-23T08:24:18.987Z,980.14
2016-12-23T08:25:27.678Z,980.14
2016-12-23T08:26:36.370Z,980.18
2016-12-23T08:27:45.062Z,980.18
2016-12-23T08:28:53.753Z,980.24
2016-12-23T08:30:02.446Z,980.3
2016-12-23T08:31:11.137Z,980.38
2016-12-23T08:32:19.826Z,980.32
2016-12-23T08:33:28.545Z,980.32
2016-12-23T08:34:37.263Z,980.32
2016-12-23T08:35:45.951Z,980.23
2016-12-23T08:36:54.643Z,980.3
2016-12-23T08:38:03.339Z,980.26
2016-12-23T08:39:12.028Z,980.26
2016-12-23T08:40:20.723Z,980.35
2016-12-23T08:41:29.412Z,980.41
2016-12-23T08:42:38.102Z,980.38
2016-12-23T08:43:46.793Z,980.35
2016-12-23T08:44:55.485Z,980.35
2016-12-23T08:46:04.177Z,980.31
2016-12-23T08:47:12.876Z,980.39
2016-12-23T08:48:21.564Z,980.38
2016-12-23T08:49:30.259Z,980.39
2016-12-23T08:50:38.956Z,980.33
2016-12-23T08:51:47.644Z,980.37
2016-12-23T08:52:56.334Z,980.38
2016-12-23T08:54:05.028Z,980.46
2016-12-23T08:55:13.720Z,980.52
2016-12-23T08:56:22.409Z,980.52
2016-12-23T08:57:31.127Z,980.55
2016-12-23T08:58:39.815Z,980.61
2016-12-23T08:59:48.535Z,980.59
2016-12-23T09:00:57.229Z,980.7
2016-12-23T09:02:05.922Z,980.72
2016-12-23T09:03:14.612Z,980.76
2016-12-23T09:04:23.306Z,980.7
2016-12-23T09:05:31.997Z,980.75
2016-12-23T09:06:40.692Z,980.72
2016-12-23T09:07:49.382Z,980.71
2016-12-23T09:08:58.121Z,980.7
2016-12-23T09:10:06.813Z,980.69
2016-12-23T09:11:15.501Z,980.66
2016-12-23T09:12:24.194Z,980.71
2016-12-23T09:13:32.883Z,980.75
2016-12-23T09:14:41.574Z,980.76
2016-12-23T09:15:50.263Z,980.81
2016-12-23T09:16:58.954Z,980.89
2016-12-23T09:18:07.644Z,980.93
2016-12-23T09:19:16.330Z,981.05
2016-12-23T09:20:25.030Z,981.04
2016-12-23T09:21:33.717Z,981.1
2016-12-23T09:22:42.410Z,981.14
2016-12-23T09:23:51.104Z,981.21
2016-12-23T09:24:59.818Z,981.2
2016-12-23T09:26:08.513Z,981.23
2016-12-23T09:27:17.205Z,981.25
2016-12-23T09:28:25.896Z,981.28
2016-12-23T09:29:34.590Z,981.34
2016-12-23T09:30:43.280Z,981.36
2016-12-23T09:31:51.973Z,981.38
2016-12-23T09:33:00.664Z,981.43
2016-12-23T09:34:09.358Z,981.45
2016-12-23T09:35:18.050Z,981.44
2016-12-23T09:36:26.771Z,981.43
2016-12-23T09:37:35.462Z,981.4
2016-12-23T09:38:44.151Z,981.34
2016-12-23T09:39:52.840Z,981.32
2016-12-23T09:41:01.530Z,981.25
2016-12-23T09:42:10.222Z,981.2
2016-12-23T09:43:18.914Z,981.23
2016-12-23T09:44:27.605Z,981.25
2016-12-23T09:45:36.296Z,981.29
2016-12-23T09:46:44.990Z,981.2
2016-12-23T09:47:53.684Z,981.2
2016-12-23T09:49:02.376Z,981.19
2016-12-23T09:50:11.069Z,981.16
2016-12-23T09:51:19.770Z,981.16
2016-12-23T09:52:28.471Z,981.08
2016-12-23T09:53:37.171Z,981.12
2016-12-23T09:54:45.869Z,981.14
2016-12-23T09:55:54.561Z,981.16
2016-12-23T09:57:03.254Z,981.08
2016-12-23T09:58:11.945Z,981.04
2016-12-23T09:59:20.636Z,981.02
2016-12-23T10:00:29.326Z,981.04
2016-12-23T10:01:38.019Z,981.05
2016-12-23T10:02:46.734Z,981.03
2016-12-23T10:03:55.426Z,981
2016-12-23T10:05:04.115Z,981.07
2016-12-23T10:06:12.838Z,981.04
2016-12-23T10:07:21.554Z,981.02
2016-12-23T10:08:30.253Z,980.97
2016-12-23T10:09:38.947Z,980.99
2016-12-23T10:10:47.642Z,981.03
2016-12-23T10:11:56.360Z,981.1
2016-12-23T10:13:05.052Z,981.15
2016-12-23T10:14:13.762Z,981.12
2016-12-23T10:15:22.452Z,981.1
2016-12-23T10:16:31.146Z,981.08
2016-12-23T10:17:39.842Z,981.07
2016-12-23T10:18:48.537Z,981.09
2016-12-23T10:19:57.236Z,981.12
2016-12-23T10:21:05.928Z,981.09
2016-12-23T10:22:14.619Z,981.08
2016-12-23T10:23:23.309Z,981.12
2016-12-23T10:24:32.001Z,981.12
2016-12-23T10:25:40.696Z,981.13
2016-12-23T10:26:49.386Z,981.16
2016-12-23T10:27:58.080Z,981.16
2016-12-23T10:29:06.801Z,981.16
2016-12-23T10:30:15.492Z,981.25
2016-12-23T10:31:24.182Z,981.22
2016-12-23T10:32:32.878Z,981.22
2016-12-23T10:33:41.572Z,981.22
2016-12-23T10:34:50.261Z,981.25
2016-12-23T10:35:58.956Z,981.27
2016-12-23T10:37:07.650Z,981.22
2016-12-23T10:38:16.346Z,981.26
2016-12-23T10:39:25.039Z,981.26
2016-12-23T10:40:33.731Z,981.28
2016-12-23T10:41:42.426Z,981.21
2016-12-23T10:42:51.116Z,981.18
2016-12-23T10:43:59.808Z,981.19
2016-12-23T10:45:08.503Z,981.12
2016-12-23T10:46:17.195Z,981.08
2016-12-23T10:47:25.886Z,981.07
2016-12-23T10:48:34.582Z,981
2016-12-23T10:49:43.274Z,980.96
2016-12-23T10:50:51.968Z,980.93
2016-12-23T10:52:00.663Z,980.92
2016-12-23T10:53:09.361Z,980.91
2016-12-23T10:54:18.055Z,980.87
2016-12-23T10:55:26.752Z,980.85
2016-12-23T10:56:35.446Z,980.83
2016-12-23T10:57:44.146Z,980.8
2016-12-23T10:58:53.166Z,980.82
2016-12-23T11:00:01.862Z,980.81
2016-12-23T11:01:10.875Z,980.79
2016-12-23T11:02:19.573Z,980.79
2016-12-23T11:03:28.588Z,980.8
2016-12-23T11:04:37.281Z,980.84
2016-12-23T11:05:45.976Z,980.82
2016-12-23T11:06:54.667Z,980.81
2016-12-23T11:08:03.373Z,980.72
2016-12-23T11:09:12.092Z,980.77
2016-12-23T11:10:20.784Z,980.67
2016-12-23T11:11:29.507Z,980.64
2016-12-23T11:12:38.205Z,980.66
2016-12-23T11:13:46.901Z,980.67
2016-12-23T11:14:55.612Z,980.73
2016-12-23T11:16:04.307Z,980.75
2016-12-23T11:17:13.003Z,980.76
2016-12-23T11:18:21.697Z,980.83
2016-12-23T11:19:30.391Z,980.88
2016-12-23T11:20:39.088Z,980.84
2016-12-23T11:21:47.782Z,980.86
2016-12-23T11:22:56.485Z,980.9
2016-12-23T11:24:05.180Z,980.98
2016-12-23T11:25:13.880Z,980.99
2016-12-23T11:26:22.583Z,980.96
2016-12-23T11:27:31.284Z,981.05
2016-12-23T11:28:39.981Z,981.04
2016-12-23T11:29:48.680Z,981.1
2016-12-23T11:30:57.375Z,981.13
2016-12-23T11:32:06.074Z,981.1
2016-12-23T11:33:14.768Z,981.1
2016-12-23T11:34:23.468Z,981.05
2016-12-23T11:35:32.163Z,981.02
2016-12-23T11:36:40.860Z,981.02
2016-12-23T11:37:49.556Z,981.05
2016-12-23T11:38:58.252Z,981.05
2016-12-23T11:40:06.955Z,981.04
2016-12-23T11:41:15.650Z,981.05
2016-12-23T11:42:24.347Z,981.07
2016-12-23T11:43:33.045Z,981.13
2016-12-23T11:44:41.749Z,981.11
2016-12-23T11:45:50.467Z,981.15
2016-12-23T11:46:59.181Z,981.17
2016-12-23T11:48:07.880Z,981.14
2016-12-23T11:49:16.576Z,981.14
2016-12-23T11:50:25.273Z,981.13
2016-12-23T11:51:33.971Z,981.12
2016-12-23T11:52:42.700Z,981.1
2016-12-23T11:53:51.402Z,981.11
2016-12-23T11:55:00.104Z,981.1
2016-12-23T11:56:08.801Z,981.05
2016-12-23T11:57:17.494Z,981.05
2016-12-23T11:58:26.197Z,980.98
2016-12-23T11:59:34.898Z,980.98
2016-12-23T12:00:43.600Z,980.93
2016-12-23T12:01:52.294Z,980.97
2016-12-23T12:03:00.989Z,980.96
2016-12-23T12:04:09.686Z,980.97
2016-12-23T12:05:18.385Z,980.99
2016-12-23T12:06:27.082Z,980.98
2016-12-23T12:07:35.776Z,980.95
2016-12-23T12:08:44.470Z,980.95
2016-12-23T12:09:53.167Z,980.86
2016-12-23T12:11:01.860Z,980.87
2016-12-23T12:12:10.553Z,980.87
2016-12-23T12:13:19.246Z,980.86
2016-12-23T12:14:27.947Z,980.84
2016-12-23T12:15:36.646Z,980.85
2016-12-23T12:16:45.349Z,980.86
2016-12-23T12:17:54.367Z,980.86
2016-12-23T12:19:03.057Z,980.89
2016-12-23T12:20:11.753Z,980.88
2016-12-23T12:21:20.445Z,980.86
2016-12-23T12:22:29.144Z,980.9
2016-12-23T12:23:37.943Z,980.93
2016-12-23T12:24:46.637Z,980.94
2016-12-23T12:25:55.331Z,980.97
2016-12-23T12:27:04.032Z,981.01
2016-12-23T12:28:12.725Z,981.03
2016-12-23T12:29:21.417Z,980.99
2016-12-23T12:30:30.145Z,980.96
2016-12-23T12:31:38.839Z,980.97
2016-12-23T12:32:47.845Z,980.93
2016-12-23T12:33:56.545Z,980.99
2016-12-23T12:35:05.240Z,981
2016-12-23T12:36:13.942Z,981.01
2016-12-23T12:37:22.663Z,981
2016-12-23T12:38:31.353Z,980.99
2016-12-23T12:39:40.045Z,981.08
2016-12-23T12:40:48.740Z,981.05
2016-12-23T12:41:57.441Z,981.1
2016-12-23T12:43:06.135Z,981.13
2016-12-23T12:44:14.826Z,981.18
2016-12-23T12:45:23.521Z,981.26
2016-12-23T12:46:32.218Z,981.21
2016-12-23T12:47:40.914Z,981.24
2016-12-23T12:48:49.607Z,981.19
2016-12-23T12:49:58.298Z,981.23
2016-12-23T12:51:06.999Z,981.24
2016-12-23T12:52:15.690Z,981.19
2016-12-23T12:53:24.387Z,981.17
2016-12-23T12:54:33.079Z,981.18
2016-12-23T12:55:41.774Z,981.21
2016-12-23T12:56:50.471Z,981.18
2016-12-23T12:57:59.165Z,981.15
2016-12-23T12:59:07.861Z,981.22
2016-12-23T13:00:16.554Z,981.2
2016-12-23T13:01:25.252Z,981.16
2016-12-23T13:02:34.289Z,981.21
2016-12-23T13:03:42.981Z,981.17
2016-12-23T13:04:51.679Z,981.13
2016-12-23T13:06:00.370Z,981
2016-12-23T13:07:09.062Z,980.95
2016-12-23T13:08:17.755Z,980.91
2016-12-23T13:09:26.449Z,980.83
2016-12-23T13:10:35.143Z,980.82
2016-12-23T13:11:43.846Z,980.77
2016-12-23T13:12:52.541Z,980.7
2016-12-23T13:14:01.235Z,980.67
2016-12-23T13:15:09.928Z,980.75
2016-12-23T13:16:18.619Z,980.69
2016-12-23T13:17:27.313Z,980.72
2016-12-23T13:18:36.040Z,980.7
2016-12-23T13:19:44.736Z,980.7
2016-12-23T13:20:53.429Z,980.67
2016-12-23T13:22:02.123Z,980.62
2016-12-23T13:23:10.844Z,980.59
2016-12-23T13:24:19.535Z,980.56
2016-12-23T13:25:28.230Z,980.49
2016-12-23T13:26:37.235Z,980.47
2016-12-23T13:27:45.934Z,980.44
2016-12-23T13:28:54.634Z,980.45
2016-12-23T13:30:03.331Z,980.41
2016-12-23T13:31:12.023Z,980.31
2016-12-23T13:32:20.721Z,980.31
2016-12-23T13:33:29.414Z,980.32
2016-12-23T13:34:38.114Z,980.3
2016-12-23T13:35:46.804Z,980.23
2016-12-23T13:36:55.497Z,980.22
2016-12-23T13:38:04.193Z,980.2
2016-12-23T13:39:12.884Z,980.15
2016-12-23T13:40:21.600Z,980.17
2016-12-23T13:41:30.293Z,980.23
2016-12-23T13:42:38.986Z,980.15
2016-12-23T13:43:47.731Z,980.1
2016-12-23T13:44:56.423Z,980.11
2016-12-23T13:46:05.118Z,980.1
2016-12-23T13:47:13.813Z,980.06
2016-12-23T13:48:22.535Z,980.05
2016-12-23T13:49:31.229Z,980.06
2016-12-23T13:50:39.927Z,980.02
2016-12-23T13:51:48.619Z,980.02
2016-12-23T13:52:57.313Z,980.04
2016-12-23T13:54:06.007Z,979.99
2016-12-23T13:55:14.708Z,979.98
2016-12-23T13:56:23.402Z,979.91
2016-12-23T13:57:32.096Z,979.94
2016-12-23T13:58:40.794Z,979.89
2016-12-23T13:59:49.517Z,979.9
2016-12-23T14:00:58.211Z,979.86
2016-12-23T14:02:06.903Z,979.85
2016-12-23T14:03:15.598Z,979.81
2016-12-23T14:04:24.294Z,979.76
2016-12-23T14:05:32.990Z,979.77
2016-12-23T14:06:41.687Z,979.77
2016-12-23T14:07:50.383Z,979.67
2016-12-23T14:08:59.080Z,979.62
2016-12-23T14:10:07.804Z,979.54
2016-12-23T14:11:16.499Z,979.55
2016-12-23T14:12:25.196Z,979.53
2016-12-23T14:13:33.891Z,979.54
2016-12-23T14:14:42.583Z,979.44
2016-12-23T14:15:51.273Z,979.39
2016-12-23T14:16:59.968Z,979.35
2016-12-23T14:18:08.667Z,979.3
2016-12-23T14:19:17.359Z,979.31
2016-12-23T14:20:26.049Z,979.32